Time;durP1;ratioP1;P1;durP2;ratioP2;P2;SDS_P1;SDS_P2;PMS_P1;PMS_P2;Temp;Humidity;BMP_temperature;BMP_pressure;BME280_temperature;BME280_humidity;BME280_pressure;Samples;Min_cycle;Max_cycle;Signal;HPM_P1;HPM_P2
2021/10/05 00:00:50;;;;;;;1.08;0.80;;;;;;;;;;5047069;28;20044;-71
2021/10/05 00:03:34;;;;;;;1.30;0.90;;;;;;;;;;5045062;28;20479;-71
2021/10/05 00:06:19;;;;;;;1.13;0.80;;;;;;;;;;5035713;28;20124;-71
2021/10/05 00:09:03;;;;;;;2.25;1.08;;;;;;;;;;5045119;28;20035;-71
2021/10/05 00:11:48;;;;;;;1.20;0.80;;;;;;;;;;5042928;28;20048;-71
2021/10/05 00:14:32;;;;;;;1.95;0.80;;;;;;;;;;5046914;28;20102;-71
2021/10/05 00:17:20;;;;;;;1.33;0.85;;;;;;;;;;5041043;28;20067;-72
2021/10/05 00:20:05;;;;;;;3.22;0.88;;;;;;;;;;5045704;28;20079;-71
2021/10/05 00:22:50;;;;;;;1.20;0.90;;;;;;;;;;5039697;28;20045;-71
2021/10/05 00:25:37;;;;;;;1.25;0.88;;;;;;;;;;5044330;28;20171;-71
2021/10/05 00:28:21;;;;;;;1.63;1.00;;;;;;;;;;5038741;28;20033;-71
2021/10/05 00:31:05;;;;;;;1.50;0.90;;;;;;;;;;5035579;28;20063;-71
2021/10/05 00:33:50;;;;;;;1.40;0.90;;;;;;;;;;5043609;28;20044;-71
2021/10/05 00:36:34;;;;;;;1.13;0.80;;;;;;;;;;5043172;28;20091;-72
2021/10/05 00:39:21;;;;;;;1.38;0.98;;;;;;;;;;5047091;28;20071;-71
2021/10/05 00:42:06;;;;;;;1.05;0.80;;;;;;;;;;5045107;28;20052;-71
2021/10/05 00:44:51;;;;;;;2.00;0.90;;;;;;;;;;5048435;28;20118;-72
2021/10/05 00:47:36;;;;;;;1.40;0.90;;;;;;;;;;5028566;28;20048;-71
2021/10/05 00:50:20;;;;;;;1.80;0.90;;;;;;;;;;5030763;28;20051;-71
2021/10/05 00:53:05;;;;;;;1.42;0.98;;;;;;;;;;5048198;28;20417;-71
2021/10/05 00:55:50;;;;;;;1.80;0.95;;;;;;;;;;5040537;28;20060;-71
2021/10/05 00:58:34;;;;;;;1.25;0.93;;;;;;;;;;5027163;28;20032;-71
2021/10/05 01:01:19;;;;;;;1.63;0.95;;;;;;;;;;5045197;28;20048;-71
2021/10/05 01:04:03;;;;;;;1.50;0.98;;;;;;;;;;5048064;28;20043;-71
2021/10/05 01:06:48;;;;;;;1.55;1.00;;;;;;;;;;5036035;28;20082;-71
2021/10/05 01:09:33;;;;;;;2.08;1.05;;;;;;;;;;5041167;28;20099;-71
2021/10/05 01:12:18;;;;;;;1.77;0.95;;;;;;;;;;5035849;28;20040;-71
2021/10/05 01:15:03;;;;;;;1.33;0.90;;;;;;;;;;5047299;28;20519;-71
2021/10/05 01:17:48;;;;;;;1.55;0.93;;;;;;;;;;5040647;28;20040;-71
2021/10/05 01:20:50;;;;;;;2.10;1.38;;;;;;;;;;5034830;28;20138;-72
2021/10/05 01:23:37;;;;;;;1.20;0.95;;;;;;;;;;5048001;28;20456;-72
2021/10/05 01:26:21;;;;;;;2.25;1.17;;;;;;;;;;5038077;28;20040;-72
2021/10/05 01:29:06;;;;;;;1.58;1.10;;;;;;;;;;5028514;28;20099;-72
2021/10/05 01:31:52;;;;;;;2.00;1.10;;;;;;;;;;5041555;28;20060;-72
2021/10/05 01:34:36;;;;;;;1.70;1.10;;;;;;;;;;5032729;28;20508;-72
2021/10/05 01:37:20;;;;;;;1.50;1.10;;;;;;;;;;5046516;28;20048;-72
2021/10/05 01:40:05;;;;;;;1.55;1.05;;;;;;;;;;5057689;28;20561;-72
2021/10/05 01:42:50;;;;;;;1.73;1.10;;;;;;;;;;5028453;28;20048;-72
2021/10/05 01:45:37;;;;;;;1.63;1.05;;;;;;;;;;5042956;28;20095;-72
2021/10/05 01:48:22;;;;;;;2.05;1.10;;;;;;;;;;5046178;28;20040;-72
2021/10/05 01:51:06;;;;;;;2.20;1.10;;;;;;;;;;5047710;28;20087;-72
2021/10/05 01:53:51;;;;;;;1.95;1.13;;;;;;;;;;5045714;28;20112;-72
2021/10/05 01:56:35;;;;;;;2.25;1.20;;;;;;;;;;5044950;28;20048;-72
2021/10/05 01:59:20;;;;;;;1.42;1.00;;;;;;;;;;5038264;28;20040;-72
2021/10/05 02:02:04;;;;;;;1.30;1.10;;;;;;;;;;5016652;28;20102;-72
2021/10/05 02:04:49;;;;;;;1.50;1.10;;;;;;;;;;5028477;28;20087;-72
2021/10/05 02:07:34;;;;;;;1.63;1.10;;;;;;;;;;5045510;28;20043;-72
2021/10/05 02:10:19;;;;;;;1.30;1.00;;;;;;;;;;5045842;28;20052;-72
2021/10/05 02:13:04;;;;;;;1.63;1.08;;;;;;;;;;5047562;28;20043;-72
2021/10/05 02:15:49;;;;;;;2.15;1.23;;;;;;;;;;5045841;28;20131;-72
2021/10/05 02:18:33;;;;;;;2.72;1.08;;;;;;;;;;5047363;28;20497;-72
2021/10/05 02:21:18;;;;;;;2.42;1.20;;;;;;;;;;5047095;28;20047;-72
2021/10/05 02:27:05;;;;;;;1.80;1.00;;;;;;;;;;5036306;28;20099;-72
2021/10/05 02:29:50;;;;;;;1.38;1.00;;;;;;;;;;5035138;28;20110;-71
2021/10/05 02:32:35;;;;;;;1.13;0.90;;;;;;;;;;5045047;28;20048;-71
2021/10/05 02:35:19;;;;;;;1.77;1.20;;;;;;;;;;5033546;28;20048;-72
2021/10/05 02:38:04;;;;;;;1.67;1.10;;;;;;;;;;5044621;28;20087;-71
2021/10/05 02:40:49;;;;;;;1.30;0.95;;;;;;;;;;5038332;28;20155;-71
2021/10/05 02:43:33;;;;;;;1.30;1.00;;;;;;;;;;5045126;28;20067;-72
2021/10/05 02:46:17;;;;;;;2.65;1.10;;;;;;;;;;5041899;28;20079;-71
2021/10/05 02:49:02;;;;;;;2.35;1.10;;;;;;;;;;5037409;28;20047;-71
2021/10/05 02:51:47;;;;;;;2.17;1.30;;;;;;;;;;5034140;28;20147;-71
2021/10/05 02:54:32;;;;;;;1.75;0.95;;;;;;;;;;5045719;28;20040;-71
2021/10/05 02:57:17;;;;;;;1.73;1.05;;;;;;;;;;5038758;28;20039;-71
2021/10/05 03:00:02;;;;;;;1.60;1.10;;;;;;;;;;5026951;28;20529;-71
2021/10/05 03:02:46;;;;;;;1.77;1.02;;;;;;;;;;5019379;28;20035;-71
2021/10/05 03:05:31;;;;;;;2.08;1.23;;;;;;;;;;5046278;28;20098;-71
2021/10/05 03:08:15;;;;;;;2.20;1.13;;;;;;;;;;5045564;28;20087;-71
2021/10/05 03:11:00;;;;;;;1.58;1.15;;;;;;;;;;5040960;28;20111;-71
2021/10/05 03:13:44;;;;;;;1.98;1.30;;;;;;;;;;5029134;28;20348;-71
2021/10/05 03:16:29;;;;;;;2.65;1.27;;;;;;;;;;5044822;28;20043;-71
2021/10/05 03:19:13;;;;;;;1.77;1.40;;;;;;;;;;5048069;28;20535;-71
2021/10/05 03:21:58;;;;;;;2.53;1.27;;;;;;;;;;5048710;28;20044;-71
2021/10/05 03:24:43;;;;;;;1.98;1.02;;;;;;;;;;5047622;28;20067;-70
2021/10/05 03:27:27;;;;;;;1.77;1.40;;;;;;;;;;5034717;28;20083;-71
2021/10/05 03:30:12;;;;;;;2.38;1.30;;;;;;;;;;5047634;28;20516;-70
2021/10/05 03:32:57;;;;;;;2.45;1.17;;;;;;;;;;5038946;28;20588;-71
2021/10/05 03:35:41;;;;;;;1.58;1.10;;;;;;;;;;5045373;28;20086;-71
2021/10/05 03:38:26;;;;;;;2.47;1.15;;;;;;;;;;5047852;28;20114;-71
2021/10/05 03:41:10;;;;;;;1.67;1.00;;;;;;;;;;5034543;28;20091;-70
2021/10/05 03:43:55;;;;;;;1.83;1.10;;;;;;;;;;5029733;28;20048;-70
2021/10/05 03:46:39;;;;;;;2.47;1.30;;;;;;;;;;5037272;28;20036;-70
2021/10/05 03:49:24;;;;;;;2.35;1.25;;;;;;;;;;5049029;28;20138;-70
2021/10/05 03:52:09;;;;;;;1.65;1.13;;;;;;;;;;5047392;28;20048;-70
2021/10/05 03:54:55;;;;;;;1.80;1.10;;;;;;;;;;5043282;28;20048;-70
2021/10/05 03:57:39;;;;;;;1.63;1.13;;;;;;;;;;5040569;28;20406;-71
2021/10/05 04:00:24;;;;;;;2.08;1.27;;;;;;;;;;5031513;28;20094;-71
2021/10/05 04:03:09;;;;;;;3.30;1.27;;;;;;;;;;5049444;28;20272;-71
2021/10/05 04:05:53;;;;;;;1.90;1.17;;;;;;;;;;5044778;28;20071;-71
2021/10/05 04:08:38;;;;;;;2.00;1.13;;;;;;;;;;5015039;28;20040;-71
2021/10/05 04:11:22;;;;;;;1.55;1.10;;;;;;;;;;5036474;28;20122;-71
2021/10/05 04:14:07;;;;;;;1.90;1.23;;;;;;;;;;5050027;28;20572;-71
2021/10/05 04:16:52;;;;;;;2.45;1.02;;;;;;;;;;5033794;28;20079;-72
2021/10/05 04:19:36;;;;;;;2.28;1.30;;;;;;;;;;5049454;28;20047;-71
2021/10/05 04:22:21;;;;;;;1.52;1.15;;;;;;;;;;5036450;28;20120;-71
2021/10/05 04:25:06;;;;;;;1.70;1.13;;;;;;;;;;5045500;28;20048;-71
2021/10/05 04:27:51;;;;;;;1.65;1.10;;;;;;;;;;5033348;28;20051;-71
2021/10/05 04:30:36;;;;;;;2.78;1.45;;;;;;;;;;5031907;28;20053;-71
2021/10/05 04:33:20;;;;;;;2.25;1.25;;;;;;;;;;5043882;28;20071;-71
2021/10/05 04:36:05;;;;;;;1.52;1.00;;;;;;;;;;5043153;28;20087;-71
2021/10/05 04:38:50;;;;;;;2.47;1.20;;;;;;;;;;5034203;28;20529;-71
2021/10/05 04:41:34;;;;;;;3.10;1.55;;;;;;;;;;5049439;28;20071;-71
2021/10/05 04:44:19;;;;;;;2.05;1.13;;;;;;;;;;5028286;28;20048;-71
2021/10/05 04:47:04;;;;;;;1.45;1.00;;;;;;;;;;5031510;28;20168;-71
2021/10/05 04:49:48;;;;;;;2.08;1.30;;;;;;;;;;5047930;28;20417;-71
2021/10/05 04:52:33;;;;;;;3.42;1.30;;;;;;;;;;5046627;28;20043;-71
2021/10/05 04:55:18;;;;;;;3.15;1.30;;;;;;;;;;5048084;28;20512;-71
2021/10/05 04:58:02;;;;;;;2.50;1.40;;;;;;;;;;5047836;28;20052;-71
2021/10/05 05:00:47;;;;;;;1.88;1.10;;;;;;;;;;5046878;28;20114;-71
2021/10/05 05:03:32;;;;;;;2.75;1.38;;;;;;;;;;5048207;28;20032;-71
2021/10/05 05:06:16;;;;;;;2.15;1.20;;;;;;;;;;5047788;28;20512;-71
2021/10/05 05:09:01;;;;;;;2.00;1.30;;;;;;;;;;5046948;28;20048;-71
2021/10/05 05:11:45;;;;;;;2.92;1.40;;;;;;;;;;5041964;28;20148;-71
2021/10/05 05:14:30;;;;;;;2.08;1.30;;;;;;;;;;5046491;28;20114;-71
2021/10/05 05:17:14;;;;;;;2.30;1.50;;;;;;;;;;5047644;28;20040;-71
2021/10/05 05:19:59;;;;;;;2.05;1.50;;;;;;;;;;5043636;28;20193;-71
2021/10/05 05:22:45;;;;;;;3.33;1.60;;;;;;;;;;5047857;28;20070;-71
2021/10/05 05:25:31;;;;;;;2.13;1.25;;;;;;;;;;5039434;28;20394;-71
2021/10/05 05:28:16;;;;;;;2.40;1.33;;;;;;;;;;5029642;28;20047;-71
2021/10/05 05:31:00;;;;;;;2.08;1.30;;;;;;;;;;5028568;28;20094;-71
2021/10/05 05:33:45;;;;;;;2.70;1.40;;;;;;;;;;5043635;28;20040;-71
2021/10/05 05:36:30;;;;;;;2.65;1.58;;;;;;;;;;5046732;28;20087;-71
2021/10/05 05:39:14;;;;;;;2.38;1.50;;;;;;;;;;5033020;28;20118;-71
2021/10/05 05:41:59;;;;;;;3.03;1.52;;;;;;;;;;5032566;28;20045;-71
2021/10/05 05:44:44;;;;;;;2.28;1.40;;;;;;;;;;5029990;28;20047;-70
2021/10/05 05:47:28;;;;;;;3.00;1.10;;;;;;;;;;5028049;28;20040;-71
2021/10/05 05:50:13;;;;;;;2.63;1.50;;;;;;;;;;5034263;28;20060;-71
2021/10/05 05:52:57;;;;;;;2.17;1.30;;;;;;;;;;5030303;28;20040;-71
2021/10/05 05:55:42;;;;;;;2.15;1.30;;;;;;;;;;5031312;28;20562;-71
2021/10/05 05:58:26;;;;;;;1.75;1.23;;;;;;;;;;5045012;28;20064;-71
2021/10/05 06:01:11;;;;;;;2.15;1.40;;;;;;;;;;5047222;28;20539;-70
2021/10/05 06:03:56;;;;;;;2.67;1.20;;;;;;;;;;5048019;28;20075;-71
2021/10/05 06:06:40;;;;;;;2.28;1.65;;;;;;;;;;5038684;28;20055;-71
2021/10/05 06:09:25;;;;;;;2.58;1.25;;;;;;;;;;5047314;28;20048;-70
2021/10/05 06:12:15;;;;;;;2.17;1.20;;;;;;;;;;5047875;28;20147;-71
2021/10/05 06:15:00;;;;;;;1.90;1.13;;;;;;;;;;5047162;28;20089;-70
2021/10/05 06:17:45;;;;;;;2.47;1.13;;;;;;;;;;5047070;28;20044;-70
2021/10/05 06:20:29;;;;;;;3.17;1.30;;;;;;;;;;5012784;28;20039;-71
2021/10/05 06:23:14;;;;;;;2.22;1.30;;;;;;;;;;5042190;28;20536;-71
2021/10/05 06:25:58;;;;;;;2.97;1.25;;;;;;;;;;5026952;28;20068;-71
2021/10/05 06:28:43;;;;;;;2.10;1.20;;;;;;;;;;5046692;28;20582;-70
2021/10/05 06:31:27;;;;;;;2.40;1.20;;;;;;;;;;5046508;28;20183;-70
2021/10/05 06:34:12;;;;;;;2.25;1.30;;;;;;;;;;5028318;28;20393;-71
2021/10/05 06:36:57;;;;;;;2.95;1.17;;;;;;;;;;5028563;28;20666;-71
2021/10/05 06:39:41;;;;;;;1.98;1.05;;;;;;;;;;5046831;28;20040;-71
2021/10/05 06:42:28;;;;;;;1.70;0.98;;;;;;;;;;5026806;28;20146;-70
2021/10/05 06:45:13;;;;;;;1.98;1.10;;;;;;;;;;5040159;28;20171;-71
2021/10/05 06:47:57;;;;;;;1.80;1.10;;;;;;;;;;5049683;28;20120;-71
2021/10/05 06:50:42;;;;;;;1.63;0.93;;;;;;;;;;5038675;28;20102;-70
2021/10/05 06:53:27;;;;;;;2.03;1.17;;;;;;;;;;5048049;28;20040;-70
2021/10/05 06:56:12;;;;;;;1.98;1.10;;;;;;;;;;5051327;28;20079;-70
2021/10/05 06:58:56;;;;;;;2.33;0.95;;;;;;;;;;5051614;28;20551;-70
2021/10/05 07:01:41;;;;;;;2.65;1.00;;;;;;;;;;5034225;28;20043;-71
2021/10/05 07:04:26;;;;;;;2.13;1.10;;;;;;;;;;5031989;28;20528;-72
2021/10/05 07:07:10;;;;;;;2.33;1.73;;;;;;;;;;5045070;28;20043;-72
2021/10/05 07:09:55;;;;;;;1.73;0.88;;;;;;;;;;5049755;28;20409;-71
2021/10/05 07:12:40;;;;;;;3.42;1.00;;;;;;;;;;5031366;28;20082;-72
2021/10/05 07:15:24;;;;;;;1.45;0.90;;;;;;;;;;5033226;28;20121;-71
2021/10/05 07:18:09;;;;;;;2.10;1.00;;;;;;;;;;5048869;28;20561;-72
2021/10/05 07:20:53;;;;;;;1.30;0.73;;;;;;;;;;5050375;28;20035;-72
2021/10/05 07:23:38;;;;;;;1.38;0.90;;;;;;;;;;5042248;28;20115;-72
2021/10/05 07:26:23;;;;;;;2.50;1.08;;;;;;;;;;5039666;28;20043;-72
2021/10/05 07:29:07;;;;;;;1.40;0.80;;;;;;;;;;5048694;28;20044;-71
2021/10/05 07:31:52;;;;;;;3.40;1.20;;;;;;;;;;5043465;28;20048;-72
2021/10/05 07:34:36;;;;;;;2.42;1.00;;;;;;;;;;5035411;28;20048;-72
2021/10/05 07:37:21;;;;;;;2.28;1.00;;;;;;;;;;5032279;28;20064;-72
2021/10/05 07:40:06;;;;;;;1.33;0.95;;;;;;;;;;5039677;28;20063;-72
2021/10/05 07:42:52;;;;;;;2.38;0.90;;;;;;;;;;5050800;28;20060;-71
2021/10/05 07:45:37;;;;;;;2.10;0.88;;;;;;;;;;5050624;28;20078;-71
2021/10/05 07:48:22;;;;;;;1.42;0.88;;;;;;;;;;5037330;28;20072;-72
2021/10/05 07:51:07;;;;;;;1.38;0.85;;;;;;;;;;5033940;28;20525;-71
2021/10/05 07:53:51;;;;;;;1.92;0.90;;;;;;;;;;5046529;28;20048;-71
2021/10/05 07:56:36;;;;;;;2.35;1.00;;;;;;;;;;5050679;28;20063;-71
2021/10/05 07:59:20;;;;;;;2.53;0.95;;;;;;;;;;5046993;28;20036;-72
2021/10/05 08:02:05;;;;;;;1.95;0.93;;;;;;;;;;5045577;28;20052;-71
2021/10/05 08:04:50;;;;;;;2.40;1.10;;;;;;;;;;5049349;28;20091;-72
2021/10/05 08:07:34;;;;;;;2.22;0.80;;;;;;;;;;5046183;28;20086;-71
2021/10/05 08:10:19;;;;;;;2.08;0.80;;;;;;;;;;5048897;28;20044;-71
2021/10/05 08:13:06;;;;;;;1.90;0.90;;;;;;;;;;5050159;28;20410;-72
2021/10/05 08:15:51;;;;;;;1.45;0.90;;;;;;;;;;5049830;28;20101;-72
2021/10/05 08:18:36;;;;;;;1.98;0.93;;;;;;;;;;5049525;28;20062;-71
2021/10/05 08:21:21;;;;;;;1.90;1.00;;;;;;;;;;5042489;28;20524;-72
2021/10/05 08:24:05;;;;;;;1.50;0.80;;;;;;;;;;5046667;28;20093;-71
2021/10/05 08:26:50;;;;;;;1.63;0.80;;;;;;;;;;5042741;28;20044;-71
2021/10/05 08:29:37;;;;;;;1.13;0.77;;;;;;;;;;5038843;28;20524;-71
2021/10/05 08:32:22;;;;;;;2.05;0.82;;;;;;;;;;5041514;28;20075;-71
2021/10/05 08:35:06;;;;;;;1.48;1.02;;;;;;;;;;5038708;28;20211;-71
2021/10/05 08:37:52;;;;;;;1.30;0.80;;;;;;;;;;5043825;28;20048;-71
2021/10/05 08:40:37;;;;;;;1.50;0.73;;;;;;;;;;5053907;28;20079;-71
2021/10/05 08:43:22;;;;;;;1.65;0.82;;;;;;;;;;5047710;28;20063;-71
2021/10/05 08:46:07;;;;;;;1.35;0.70;;;;;;;;;;5047207;28;20048;-71
2021/10/05 08:48:52;;;;;;;1.85;0.80;;;;;;;;;;5048639;28;20048;-71
2021/10/05 08:51:37;;;;;;;1.88;0.80;;;;;;;;;;5039714;28;20048;-71
2021/10/05 08:54:22;;;;;;;1.98;0.77;;;;;;;;;;5046062;28;20082;-71
2021/10/05 08:57:07;;;;;;;2.15;0.82;;;;;;;;;;5047235;28;20508;-71
2021/10/05 08:59:51;;;;;;;1.65;0.80;;;;;;;;;;5046378;28;20052;-71
2021/10/05 09:02:52;;;;;;;2.40;0.98;;;;;;;;;;5050024;28;20039;-71
2021/10/05 09:05:40;;;;;;;1.33;0.70;;;;;;;;;;5037743;28;20095;-71
2021/10/05 09:08:28;;;;;;;1.88;0.88;;;;;;;;;;5041517;28;20087;-70
2021/10/05 09:11:13;;;;;;;2.90;0.95;;;;;;;;;;5030555;28;20293;-71
2021/10/05 09:13:58;;;;;;;1.67;0.80;;;;;;;;;;5049091;28;20063;-71
2021/10/05 09:16:43;;;;;;;2.10;0.70;;;;;;;;;;5040762;28;20039;-71
2021/10/05 09:19:28;;;;;;;2.00;0.88;;;;;;;;;;5035039;28;20126;-71
2021/10/05 09:22:19;;;;;;;1.60;0.80;;;;;;;;;;5040196;28;20553;-71
2021/10/05 09:25:05;;;;;;;1.17;0.70;;;;;;;;;;5039001;28;20052;-71
2021/10/05 09:27:49;;;;;;;1.85;0.70;;;;;;;;;;5040461;28;20142;-71
2021/10/05 09:30:34;;;;;;;1.92;0.70;;;;;;;;;;5047020;28;20095;-72
2021/10/05 09:33:19;;;;;;;2.08;0.70;;;;;;;;;;5035669;28;20039;-71
2021/10/05 09:36:03;;;;;;;1.40;0.70;;;;;;;;;;5042363;28;20052;-71
2021/10/05 09:38:48;;;;;;;0.70;0.60;;;;;;;;;;5046922;28;20497;-71
2021/10/05 09:41:32;;;;;;;2.00;0.80;;;;;;;;;;5046279;28;20520;-71
2021/10/05 09:44:17;;;;;;;3.30;0.80;;;;;;;;;;5046576;28;20071;-71
2021/10/05 09:47:02;;;;;;;0.80;0.60;;;;;;;;;;5041117;28;20098;-71
2021/10/05 09:49:46;;;;;;;2.40;0.80;;;;;;;;;;5039809;28;20056;-71
2021/10/05 09:52:38;;;;;;;3.33;1.30;;;;;;;;;;5039956;28;20546;-71
2021/10/05 09:55:23;;;;;;;1.95;0.75;;;;;;;;;;5054160;28;20032;-71
2021/10/05 09:58:08;;;;;;;2.90;0.80;;;;;;;;;;5044550;28;20767;-71
2021/10/05 10:00:53;;;;;;;3.63;0.77;;;;;;;;;;5031353;28;20057;-71
2021/10/05 10:03:38;;;;;;;1.85;0.60;;;;;;;;;;5051100;28;20783;-71
2021/10/05 10:06:23;;;;;;;2.10;0.63;;;;;;;;;;5044800;28;20603;-72
2021/10/05 10:09:07;;;;;;;3.25;0.77;;;;;;;;;;5040329;28;20043;-72
2021/10/05 10:11:53;;;;;;;2.05;0.70;;;;;;;;;;5045731;28;20102;-72
2021/10/05 10:14:37;;;;;;;3.10;0.70;;;;;;;;;;5043787;28;20035;-72
2021/10/05 10:17:23;;;;;;;0.85;0.80;;;;;;;;;;5041510;28;20102;-72
2021/10/05 10:20:08;;;;;;;2.05;0.80;;;;;;;;;;5047463;28;20071;-71
2021/10/05 10:22:53;;;;;;;1.77;0.82;;;;;;;;;;5045649;28;20196;-72
2021/10/05 10:25:38;;;;;;;1.45;0.80;;;;;;;;;;5043274;28;20075;-72
2021/10/05 10:28:24;;;;;;;1.52;0.80;;;;;;;;;;5060973;28;20039;-72
2021/10/05 10:31:12;;;;;;;1.58;0.90;;;;;;;;;;5039613;28;20102;-72
2021/10/05 10:33:56;;;;;;;1.58;0.85;;;;;;;;;;5038136;28;20043;-72
2021/10/05 10:36:41;;;;;;;2.40;0.73;;;;;;;;;;5039630;28;20711;-72
2021/10/05 10:39:27;;;;;;;1.95;0.80;;;;;;;;;;5060169;28;20077;-71
2021/10/05 10:42:12;;;;;;;3.42;0.88;;;;;;;;;;5050876;28;20120;-71
2021/10/05 10:44:57;;;;;;;1.75;1.00;;;;;;;;;;5046488;28;20099;-72
2021/10/05 10:47:42;;;;;;;2.05;0.93;;;;;;;;;;5046641;28;20076;-71
2021/10/05 10:50:33;;;;;;;2.88;1.00;;;;;;;;;;5036068;28;20478;-71
2021/10/05 10:53:18;;;;;;;2.37;0.90;;;;;;;;;;5026843;28;20036;-71
2021/10/05 10:56:02;;;;;;;1.08;0.90;;;;;;;;;;5032217;28;20066;-71
2021/10/05 10:58:48;;;;;;;1.88;0.90;;;;;;;;;;5051057;28;20044;-71
2021/10/05 11:01:38;;;;;;;1.30;0.70;;;;;;;;;;5034591;28;20121;-71
2021/10/05 11:04:24;;;;;;;1.65;0.73;;;;;;;;;;5054693;28;20619;-71
2021/10/05 11:07:10;;;;;;;3.75;0.80;;;;;;;;;;5035057;28;20545;-70
2021/10/05 11:09:55;;;;;;;1.58;0.70;;;;;;;;;;5041930;28;20063;-70
2021/10/05 11:12:52;;;;;;;2.08;0.68;;;;;;;;;;5060394;28;20130;-70
2021/10/05 11:15:41;;;;;;;1.67;0.80;;;;;;;;;;5060392;28;20473;-70
2021/10/05 11:18:27;;;;;;;1.33;0.80;;;;;;;;;;5036188;28;20512;-71
2021/10/05 11:21:12;;;;;;;2.00;0.80;;;;;;;;;;5058788;28;20120;-70
2021/10/05 11:23:57;;;;;;;1.25;0.60;;;;;;;;;;5066080;28;20110;-70
2021/10/05 11:26:45;;;;;;;1.10;0.70;;;;;;;;;;5053728;28;20638;-71
2021/10/05 11:29:30;;;;;;;1.67;0.60;;;;;;;;;;5052285;28;20473;-70
2021/10/05 11:32:18;;;;;;;1.20;0.60;;;;;;;;;;5065321;28;20064;-71
2021/10/05 11:35:02;;;;;;;1.52;0.65;;;;;;;;;;5067913;28;20075;-70
2021/10/05 11:37:47;;;;;;;1.23;0.60;;;;;;;;;;5070051;28;20424;-70
2021/10/05 11:40:31;;;;;;;1.05;0.60;;;;;;;;;;5060192;28;20044;-71
2021/10/05 11:43:16;;;;;;;1.05;0.70;;;;;;;;;;5067535;28;20202;-71
2021/10/05 11:46:05;;;;;;;1.30;0.70;;;;;;;;;;5057877;28;20662;-71
2021/10/05 11:48:51;;;;;;;0.93;0.70;;;;;;;;;;5049414;28;20552;-70
2021/10/05 11:51:43;;;;;;;1.60;0.80;;;;;;;;;;5049188;28;20051;-71
2021/10/05 11:54:28;;;;;;;2.40;0.70;;;;;;;;;;5044076;28;20044;-70
2021/10/05 11:57:15;;;;;;;3.97;0.63;;;;;;;;;;5042129;28;20079;-70
2021/10/05 12:00:00;;;;;;;1.38;0.50;;;;;;;;;;5038503;28;20117;-70
2021/10/05 12:02:45;;;;;;;3.03;0.80;;;;;;;;;;5046780;28;20070;-70
2021/10/05 12:05:30;;;;;;;1.25;0.60;;;;;;;;;;5048930;28;20149;-71
2021/10/05 12:08:14;;;;;;;1.52;0.70;;;;;;;;;;5050759;28;20040;-70
2021/10/05 12:10:59;;;;;;;1.70;0.60;;;;;;;;;;5039187;28;20131;-69
2021/10/05 12:13:45;;;;;;;3.42;0.70;;;;;;;;;;5039917;28;20051;-71
2021/10/05 12:16:29;;;;;;;1.33;0.90;;;;;;;;;;5040672;28;20149;-72
2021/10/05 12:19:14;;;;;;;2.70;0.70;;;;;;;;;;5042217;28;20406;-71
2021/10/05 12:21:59;;;;;;;1.33;0.60;;;;;;;;;;5039422;28;20043;-71
2021/10/05 12:24:48;;;;;;;5.45;1.20;;;;;;;;;;5038601;28;20115;-71
2021/10/05 12:27:33;;;;;;;3.45;0.73;;;;;;;;;;5039675;28;20052;-70
2021/10/05 12:30:19;;;;;;;1.30;0.70;;;;;;;;;;5048152;28;20055;-70
2021/10/05 12:33:10;;;;;;;0.70;0.50;;;;;;;;;;5052358;28;20067;-70
2021/10/05 12:35:54;;;;;;;1.00;0.70;;;;;;;;;;5047299;28;20048;-71
2021/10/05 12:38:39;;;;;;;3.00;0.70;;;;;;;;;;5045813;28;20058;-70
2021/10/05 12:41:23;;;;;;;1.05;0.70;;;;;;;;;;5045033;28;20126;-70
2021/10/05 12:44:15;;;;;;;1.40;0.70;;;;;;;;;;5053709;28;20039;-70
2021/10/05 12:47:01;;;;;;;3.28;0.85;;;;;;;;;;5055784;28;20043;-71
2021/10/05 12:49:52;;;;;;;3.67;0.93;;;;;;;;;;5053504;28;20752;-71
2021/10/05 12:52:36;;;;;;;1.47;0.70;;;;;;;;;;5051782;28;20059;-72
2021/10/05 12:55:21;;;;;;;1.30;0.80;;;;;;;;;;5032577;28;20280;-72
2021/10/05 12:58:07;;;;;;;1.33;0.60;;;;;;;;;;5045714;28;20043;-72
2021/10/05 13:00:51;;;;;;;4.15;0.73;;;;;;;;;;5060057;28;20048;-72
2021/10/05 13:03:36;;;;;;;2.38;0.70;;;;;;;;;;5051570;28;20075;-70
2021/10/05 13:06:21;;;;;;;0.70;0.45;;;;;;;;;;5035836;28;20150;-70
2021/10/05 13:09:06;;;;;;;2.05;0.80;;;;;;;;;;5047557;28;20067;-70
2021/10/05 13:11:50;;;;;;;3.05;0.75;;;;;;;;;;5048344;28;20056;-70
2021/10/05 13:14:35;;;;;;;1.42;0.70;;;;;;;;;;5042953;28;20040;-70
2021/10/05 13:17:20;;;;;;;1.70;0.63;;;;;;;;;;5046457;28;20501;-72
2021/10/05 13:20:05;;;;;;;0.65;0.50;;;;;;;;;;5051960;28;20098;-70
2021/10/05 13:22:50;;;;;;;1.23;0.60;;;;;;;;;;5051849;28;20079;-69
2021/10/05 13:25:34;;;;;;;0.77;0.50;;;;;;;;;;5035648;28;20398;-70
2021/10/05 13:28:19;;;;;;;1.60;0.80;;;;;;;;;;5058180;28;20071;-69
2021/10/05 13:31:03;;;;;;;1.40;0.77;;;;;;;;;;5047473;28;20576;-71
2021/10/05 13:33:48;;;;;;;0.98;0.70;;;;;;;;;;5047336;28;20040;-70
2021/10/05 13:36:33;;;;;;;1.17;0.63;;;;;;;;;;5049963;28;20420;-69
2021/10/05 13:39:17;;;;;;;2.25;0.70;;;;;;;;;;5030329;28;20041;-71
2021/10/05 13:42:02;;;;;;;2.80;0.70;;;;;;;;;;5044806;28;20044;-70
2021/10/05 13:44:47;;;;;;;1.08;0.47;;;;;;;;;;5039573;28;20040;-71
2021/10/05 13:47:32;;;;;;;1.48;0.63;;;;;;;;;;5042634;28;20091;-71
2021/10/05 13:50:17;;;;;;;1.38;0.63;;;;;;;;;;5050022;28;20044;-71
2021/10/05 13:53:01;;;;;;;2.42;0.55;;;;;;;;;;5055253;28;20090;-71
2021/10/05 13:55:46;;;;;;;3.08;0.70;;;;;;;;;;5042571;28;20040;-71
2021/10/05 13:58:30;;;;;;;1.15;0.60;;;;;;;;;;5046807;28;20043;-71
2021/10/05 14:01:15;;;;;;;0.77;0.60;;;;;;;;;;5048297;28;20036;-71
2021/10/05 14:03:59;;;;;;;2.78;0.60;;;;;;;;;;5045167;28;20051;-72
2021/10/05 14:06:44;;;;;;;0.60;0.50;;;;;;;;;;5049049;28;20028;-72
2021/10/05 14:09:29;;;;;;;1.38;0.60;;;;;;;;;;5046796;28;20048;-72
2021/10/05 14:12:14;;;;;;;0.90;0.50;;;;;;;;;;5049376;28;20591;-71
2021/10/05 14:14:59;;;;;;;1.10;0.60;;;;;;;;;;5048293;28;20103;-72
2021/10/05 14:17:43;;;;;;;0.60;0.60;;;;;;;;;;5041842;28;20040;-71
2021/10/05 14:20:28;;;;;;;1.60;0.60;;;;;;;;;;5040167;28;20063;-71
2021/10/05 14:23:12;;;;;;;1.77;0.70;;;;;;;;;;5039728;28;20039;-71
2021/10/05 14:25:57;;;;;;;1.25;0.70;;;;;;;;;;5050209;28;20091;-71
2021/10/05 14:28:42;;;;;;;1.90;0.70;;;;;;;;;;5030377;28;20429;-71
2021/10/05 14:31:27;;;;;;;2.85;0.70;;;;;;;;;;5052088;28;20125;-71
2021/10/05 14:34:11;;;;;;;1.92;0.60;;;;;;;;;;5032022;28;20032;-71
2021/10/05 14:36:56;;;;;;;0.70;0.50;;;;;;;;;;5043027;28;20120;-71
2021/10/05 14:39:40;;;;;;;1.48;0.70;;;;;;;;;;5063954;28;20063;-71
2021/10/05 14:42:25;;;;;;;0.77;0.63;;;;;;;;;;5062517;28;20043;-71
2021/10/05 14:45:10;;;;;;;2.88;0.60;;;;;;;;;;5066027;28;20141;-71
2021/10/05 14:47:54;;;;;;;2.08;0.70;;;;;;;;;;5057947;28;20114;-71
2021/10/05 14:50:39;;;;;;;3.72;0.70;;;;;;;;;;5063898;28;20412;-71
2021/10/05 14:53:24;;;;;;;0.90;0.52;;;;;;;;;;5044954;28;20489;-71
2021/10/05 14:56:09;;;;;;;1.63;0.70;;;;;;;;;;5049402;28;20090;-73
2021/10/05 14:58:54;;;;;;;1.25;0.70;;;;;;;;;;5041759;28;20035;-75
2021/10/05 15:01:38;;;;;;;2.20;0.80;;;;;;;;;;5039754;28;20043;-75
2021/10/05 15:04:23;;;;;;;2.55;0.80;;;;;;;;;;5056779;28;20112;-75
2021/10/05 15:07:08;;;;;;;3.08;0.90;;;;;;;;;;5031987;28;20508;-75
2021/10/05 15:09:53;;;;;;;2.50;0.70;;;;;;;;;;5045783;28;20039;-75
2021/10/05 15:12:37;;;;;;;3.45;0.60;;;;;;;;;;5044910;28;20053;-75
2021/10/05 15:15:24;;;;;;;1.13;0.70;;;;;;;;;;5050410;28;20466;-75
2021/10/05 15:18:08;;;;;;;0.80;0.60;;;;;;;;;;5041768;28;20091;-76
2021/10/05 15:20:54;;;;;;;1.25;0.60;;;;;;;;;;5055485;28;20548;-76
2021/10/05 15:23:38;;;;;;;1.83;0.80;;;;;;;;;;5059007;28;20043;-76
2021/10/05 15:26:23;;;;;;;2.70;0.85;;;;;;;;;;5060711;28;20047;-76
2021/10/05 15:29:08;;;;;;;1.35;0.68;;;;;;;;;;5047389;28;20126;-75
2021/10/05 15:31:53;;;;;;;1.63;0.80;;;;;;;;;;5044782;28;20113;-75
2021/10/05 15:34:38;;;;;;;1.13;0.60;;;;;;;;;;5056979;28;20055;-75
2021/10/05 15:37:22;;;;;;;1.13;0.93;;;;;;;;;;5048256;28;20582;-75
2021/10/05 15:40:08;;;;;;;1.67;0.73;;;;;;;;;;5064651;28;20039;-76
2021/10/05 15:42:53;;;;;;;1.08;0.57;;;;;;;;;;5051771;28;20089;-75
2021/10/05 15:45:38;;;;;;;1.48;0.85;;;;;;;;;;5049435;28;20036;-76
2021/10/05 15:48:24;;;;;;;1.73;0.68;;;;;;;;;;5047002;28;20040;-76
2021/10/05 15:51:13;;;;;;;1.30;0.70;;;;;;;;;;5048872;28;20523;-75
2021/10/05 15:53:58;;;;;;;0.90;0.70;;;;;;;;;;5043681;28;20520;-75
2021/10/05 15:56:42;;;;;;;1.50;0.80;;;;;;;;;;5048237;28;20459;-75
2021/10/05 15:59:29;;;;;;;1.13;0.50;;;;;;;;;;5050799;28;20052;-75
2021/10/05 16:02:13;;;;;;;1.73;0.70;;;;;;;;;;5047483;28;20044;-74
2021/10/05 16:04:58;;;;;;;1.45;0.70;;;;;;;;;;5053946;28;20138;-74
2021/10/05 16:07:43;;;;;;;1.20;0.77;;;;;;;;;;5051331;28;20161;-74
2021/10/05 16:10:28;;;;;;;2.10;0.60;;;;;;;;;;5044625;28;20125;-75
2021/10/05 16:13:13;;;;;;;1.60;0.70;;;;;;;;;;5049176;28;20551;-75
2021/10/05 16:15:57;;;;;;;1.20;0.70;;;;;;;;;;5046511;28;20047;-75
2021/10/05 16:18:43;;;;;;;1.60;0.70;;;;;;;;;;5046294;28;20147;-74
2021/10/05 16:21:27;;;;;;;1.25;0.70;;;;;;;;;;5053796;28;20047;-74
2021/10/05 16:24:12;;;;;;;2.90;0.90;;;;;;;;;;5049332;28;20422;-75
2021/10/05 16:26:57;;;;;;;0.95;0.70;;;;;;;;;;5047335;28;20063;-75
2021/10/05 16:29:41;;;;;;;1.58;0.70;;;;;;;;;;5052019;28;20382;-75
2021/10/05 16:32:26;;;;;;;1.80;0.82;;;;;;;;;;5055051;28;20138;-75